Tropical Cyclones
[Index]
Main Index Home Page Stock Weather Photos Extreme Storms Discussion Storm News and Storm Chasing Reports Tropical Cyclones / Hurricanes / Typhoons Weather Data and Links Wild Fires / Bushfires Weather Observation Techniques Weather Picture Catalogue Tornado Pictures and Reports Stock Video Footage and DVDs for sale
Season 2002-2003 Tropical Cyclone ATANG Track Map
Season 2002-2003 Summaries (Operational Data): [AU] [SIO] [SPAC] [SH]
<<- Previous TC | 2002-2003 Season | Next TC ->>

click for intensity scale information  Lat/long Grid: Show Hide

 Date Labels: Show Hide

Operational Tropical Cyclone Data : JTWC Advisories

Name: ATANG
Number: 0302

04 Nov 2002 12:00 UTC to 13 Nov 2002 00:00 UTC

    date/time    lat    long     hPa   cat  kts
2002-11-04 12    7.6    62.7    1006         25          
2002-11-05 12    7.7    59.5    1005         25          
2002-11-06 00    8.8    59.0     999         30          
2002-11-06 06    9.1    58.9     999         30          
2002-11-06 12    9.5    59.1     998         30          
2002-11-06 18    9.4    59.0     998         30          
2002-11-07 00    9.0    58.8     997         30          
2002-11-07 06    8.4    57.6     999         30          
2002-11-07 12    7.7    56.7    1000         25          
2002-11-07 18    7.5    55.0    1003         25          
2002-11-08 18    8.8    52.6                             
2002-11-09 06   10.1    52.3                             
2002-11-09 12    8.5    50.9    1004         25          
2002-11-09 18   12.0    50.6                             
2002-11-10 06   11.4    49.4    1006         25          
2002-11-10 12   10.8    49.5    1007         20          
2002-11-10 18   11.1    48.9                             
2002-11-11 06   11.0    46.5    1006         20          
2002-11-11 12   11.1    45.0    1006         25          
2002-11-12 00   11.8    42.7                             
2002-11-12 06   10.9    41.6    1006         25          
2002-11-12 12   10.0    41.4                             
2002-11-13 00   10.4    39.4                             
Winds are 10-min average.

Tropical cyclone tracks developed by Michael Bath using operational warnings and advisories and Google Maps.


[Australian Severe Weather index] [Copyright Notice] [Email Contacts] [Search This Site] [Privacy Policy]
Document: tropical_cyclone_atang.htm Updated: 2 May 2017